Time;durP1;ratioP1;P1;durP2;ratioP2;P2;SDS_P1;SDS_P2;PMS_P1;PMS_P2;Temp;Humidity;BMP_temperature;BMP_pressure;BME280_temperature;BME280_humidity;BME280_pressure;Samples;Min_cycle;Max_cycle;Signal;HPM_P1;HPM_P2
2023/02/17 00:00:21;;;;;;;23.93;16.87;;;;;;;9.91;85.45;98988.81;4137122;28;20646;-91
2023/02/17 00:02:24;;;;;;;19.80;17.07;;;;;;;9.90;85.89;98987.13;4137452;28;20644;-91
2023/02/17 00:04:28;;;;;;;26.93;19.57;;;;;;;9.91;85.47;98981.00;4142206;28;20626;-92
2023/02/17 00:06:32;;;;;;;21.87;17.57;;;;;;;9.93;85.46;98982.63;4137852;28;20634;-91
2023/02/17 00:08:36;;;;;;;21.87;17.47;;;;;;;9.93;85.45;98976.53;4154294;28;20732;-92
2023/02/17 00:10:39;;;;;;;23.93;19.47;;;;;;;9.94;85.09;98971.28;4131682;28;21298;-91
2023/02/17 00:12:42;;;;;;;16.00;12.30;;;;;;;9.94;83.87;98979.09;4135778;28;20642;-91
2023/02/17 00:14:54;;;;;;;20.17;15.00;;;;;;;9.98;82.11;98979.78;4182930;27;1278195;-90
2023/02/17 00:16:59;;;;;;;20.20;13.90;;;;;;;10.03;82.17;98972.59;4214262;28;20291;-91
2023/02/17 00:19:22;;;;;;;21.27;16.73;;;;;;;10.05;82.52;98961.13;4200090;28;20637;-90
2023/02/17 00:21:29;;;;;;;15.93;12.27;;;;;;;10.03;82.15;98954.34;4230563;27;20690;-91
2023/02/17 00:23:32;;;;;;;17.43;14.30;;;;;;;10.07;82.10;98953.25;4217649;28;20646;-91
2023/02/17 00:25:37;;;;;;;18.27;15.20;;;;;;;10.07;82.22;98953.25;4233572;27;20618;-90
2023/02/17 00:27:40;;;;;;;19.33;16.60;;;;;;;10.09;82.34;98954.03;4220251;28;20666;-90
2023/02/17 00:29:43;;;;;;;21.65;16.35;;;;;;;10.07;83.11;98948.91;4197218;28;21023;-89
2023/02/17 00:31:48;;;;;;;15.03;11.83;;;;;;;10.08;82.31;98954.94;4217006;28;20196;-91
2023/02/17 00:33:54;;;;;;;13.77;10.60;;;;;;;10.13;81.39;98958.13;4202959;28;20663;-90
2023/02/17 00:35:57;;;;;;;16.53;11.90;;;;;;;10.18;80.96;98951.75;4195953;28;20636;-91
2023/02/17 00:38:00;;;;;;;13.00;8.33;;;;;;;10.21;80.48;98962.03;4213202;28;20669;-90
2023/02/17 00:40:03;;;;;;;9.30;8.30;;;;;;;10.27;79.64;98966.91;4212719;28;20634;-90
2023/02/17 00:42:08;;;;;;;12.32;8.13;;;;;;;10.34;78.77;98963.91;4202707;28;21214;-90
2023/02/17 00:44:16;;;;;;;9.53;8.27;;;;;;;10.40;78.16;98962.72;4214104;28;20589;-90
2023/02/17 00:46:19;;;;;;;11.50;10.30;;;;;;;10.40;78.57;98966.19;4205420;28;20638;-91
2023/02/17 00:48:24;;;;;;;17.63;10.45;;;;;;;10.37;78.94;98963.75;4193367;28;20721;-89
2023/02/17 00:50:27;;;;;;;18.08;14.82;;;;;;;10.40;78.49;98963.56;4211649;28;21109;-90
2023/02/17 00:52:30;;;;;;;16.00;11.93;;;;;;;10.36;79.97;98961.22;4214754;28;20813;-90
2023/02/17 00:54:33;;;;;;;16.13;14.03;;;;;;;10.33;80.48;98950.94;4215145;28;20639;-90
2023/02/17 00:56:37;;;;;;;19.00;12.97;;;;;;;10.31;79.96;98947.56;4232579;27;20644;-91
2023/02/17 00:58:41;;;;;;;12.17;10.37;;;;;;;10.36;80.18;98958.63;4203439;28;20680;-90
2023/02/17 01:00:44;;;;;;;13.00;9.60;;;;;;;10.39;79.39;98963.66;4207825;28;21239;-90
2023/02/17 01:02:47;;;;;;;9.23;8.00;;;;;;;10.43;78.49;98959.94;4194349;28;20670;-90
2023/02/17 01:04:53;;;;;;;16.17;11.97;;;;;;;10.43;79.17;98966.03;4211117;28;20684;-91
2023/02/17 01:06:56;;;;;;;17.77;13.13;;;;;;;10.42;80.16;98960.88;4203575;28;20638;-91
2023/02/17 01:08:59;;;;;;;15.07;12.20;;;;;;;10.35;81.44;98967.34;4214807;28;20622;-90
2023/02/17 01:11:03;;;;;;;14.50;11.63;;;;;;;10.30;82.46;98958.06;4194286;28;20619;-90
2023/02/17 01:13:08;;;;;;;15.10;12.07;;;;;;;10.24;81.85;98956.66;4216460;28;20632;-90
2023/02/17 01:15:11;;;;;;;15.23;11.90;;;;;;;10.23;82.54;98954.13;4200471;28;20661;-90
2023/02/17 01:17:14;;;;;;;12.27;10.80;;;;;;;10.23;82.19;98960.16;4214042;28;20658;-90
2023/02/17 01:19:18;;;;;;;12.43;9.40;;;;;;;10.23;81.87;98949.75;4218481;28;20619;-90
2023/02/17 01:21:27;;;;;;;13.13;9.83;;;;;;;10.29;81.72;98953.81;4195872;28;20631;-90
2023/02/17 01:23:30;;;;;;;11.40;10.00;;;;;;;10.32;82.07;98954.47;4218895;28;20665;-91
2023/02/17 01:25:37;;;;;;;14.73;9.90;;;;;;;10.33;79.98;98957.00;4224301;27;20634;-90
2023/02/17 01:27:40;;;;;;;17.30;10.07;;;;;;;10.33;79.69;98949.19;4205588;28;20633;-91
2023/02/17 01:29:44;;;;;;;11.70;8.50;;;;;;;10.37;78.62;98948.09;4208219;28;20619;-90
2023/02/17 01:31:47;;;;;;;9.60;7.70;;;;;;;10.44;78.05;98940.78;4201658;28;21240;-90
2023/02/17 01:33:50;;;;;;;9.47;6.90;;;;;;;10.48;77.38;98943.13;4195818;28;20633;-90
2023/02/17 01:35:53;;;;;;;12.83;7.83;;;;;;;10.53;77.49;98937.66;4190133;28;21026;-90
2023/02/17 01:37:58;;;;;;;10.13;6.60;;;;;;;10.56;76.51;98940.94;4202820;28;20634;-90
2023/02/17 01:40:01;;;;;;;9.67;7.37;;;;;;;10.61;77.01;98935.47;4189185;28;20724;-91
2023/02/17 01:42:06;;;;;;;11.17;7.00;;;;;;;10.62;77.46;98937.16;4183176;28;20660;-90
2023/02/17 01:44:15;;;;;;;7.80;5.43;;;;;;;10.64;77.79;98933.53;4187911;28;20632;-90
2023/02/17 01:46:18;;;;;;;7.27;5.03;;;;;;;10.68;77.18;98929.84;4203767;28;21377;-90
2023/02/17 01:48:23;;;;;;;5.93;4.30;;;;;;;10.67;75.87;98928.16;4187265;28;20988;-91
2023/02/17 01:50:30;;;;;;;7.13;4.70;;;;;;;10.71;74.78;98924.44;4198459;28;20638;-90
2023/02/17 01:52:33;;;;;;;7.00;5.10;;;;;;;10.76;74.32;98927.63;4207026;28;20732;-90
2023/02/17 01:54:42;;;;;;;6.27;4.40;;;;;;;10.80;74.36;98923.13;4183160;28;20659;-90
2023/02/17 01:56:47;;;;;;;6.00;4.60;;;;;;;10.82;74.51;98919.47;4203206;28;20658;-90
2023/02/17 01:58:54;;;;;;;6.00;4.60;;;;;;;10.84;73.86;98913.25;4189543;28;21228;-89
2023/02/17 02:00:59;;;;;;;7.70;4.33;;;;;;;10.85;74.62;98909.72;4200703;28;21228;-90
2023/02/17 02:03:04;;;;;;;6.23;4.20;;;;;;;10.88;74.33;98906.94;4196140;28;20627;-90
2023/02/17 02:05:08;;;;;;;7.10;4.53;;;;;;;10.91;73.42;98911.97;4216657;28;20648;-89
2023/02/17 02:07:30;;;;;;;6.95;4.38;;;;;;;10.92;74.31;98910.22;4200709;28;20645;-88
2023/02/17 02:12:34;;;;;;;5.50;4.45;;;;;;;10.91;73.97;98909.34;4158958;28;20643;-90
2023/02/17 02:23:02;;;;;;;5.77;4.40;;;;;;;10.96;72.61;98898.66;4218501;28;20632;-90
2023/02/17 02:25:14;;;;;;;7.00;4.90;;;;;;;10.97;73.34;98900.34;4201641;28;20631;-90
2023/02/17 02:27:31;;;;;;;6.50;4.20;;;;;;;10.96;72.75;98894.28;4191057;28;20722;-90
2023/02/17 02:30:02;;;;;;;5.40;4.20;;;;;;;10.98;72.22;98895.03;4195787;28;20749;-90
2023/02/17 02:32:41;;;;;;;5.83;4.40;;;;;;;11.03;73.65;98897.38;4204456;28;20646;-90
2023/02/17 02:34:48;;;;;;;5.83;4.83;;;;;;;11.04;73.43;98894.69;4139319;28;20733;-90
2023/02/17 02:36:57;;;;;;;6.23;4.37;;;;;;;11.03;73.78;98892.16;4173448;28;21290;-91
2023/02/17 02:39:03;;;;;;;5.67;4.47;;;;;;;11.03;73.22;98898.22;4202474;28;21097;-90
2023/02/17 02:41:10;;;;;;;7.70;4.50;;;;;;;11.07;72.35;98889.28;4184070;28;21233;-91
2023/02/17 02:43:13;;;;;;;8.00;4.47;;;;;;;11.10;72.65;98894.34;4187805;28;20632;-91
2023/02/17 02:45:18;;;;;;;9.00;4.57;;;;;;;11.08;73.09;98890.13;4179888;28;20660;-89
2023/02/17 02:47:52;;;;;;;7.93;4.50;;;;;;;11.12;74.05;98891.63;4180235;28;20635;-91
2023/02/17 02:50:00;;;;;;;5.50;4.33;;;;;;;11.15;74.16;98891.47;4123070;28;20631;-90
2023/02/17 02:52:08;;;;;;;8.30;5.03;;;;;;;11.11;71.73;98882.97;4183652;28;20641;-90
2023/02/17 02:54:27;;;;;;;7.90;5.40;;;;;;;11.09;73.48;98887.41;4204803;28;20996;-90
2023/02/17 02:56:41;;;;;;;5.73;4.20;;;;;;;11.11;72.46;98887.34;4181520;28;20632;-90
2023/02/17 02:58:48;;;;;;;7.57;5.30;;;;;;;11.12;72.02;98883.81;4201690;28;20642;-90
2023/02/17 03:00:58;;;;;;;7.53;4.43;;;;;;;11.09;73.15;98876.97;4218892;28;20630;-91
2023/02/17 03:03:08;;;;;;;7.93;5.17;;;;;;;11.07;72.80;98872.78;4182926;28;21750;-91
2023/02/17 03:05:16;;;;;;;7.03;4.70;;;;;;;11.05;71.51;98865.06;4201247;28;20634;-90
2023/02/17 03:07:23;;;;;;;9.00;4.50;;;;;;;11.08;71.70;98862.25;4208926;28;21049;-90
2023/02/17 03:09:27;;;;;;;7.33;4.80;;;;;;;11.10;72.93;98867.41;4203737;28;20725;-91
2023/02/17 03:11:33;;;;;;;8.73;5.93;;;;;;;11.08;70.97;98861.41;4189081;28;20650;-91
2023/02/17 03:13:39;;;;;;;9.03;4.73;;;;;;;11.06;71.87;98858.06;4199966;28;20735;-90
2023/02/17 03:15:45;;;;;;;6.43;4.23;;;;;;;11.07;70.85;98860.56;4186503;28;20709;-91
2023/02/17 03:17:48;;;;;;;7.00;4.37;;;;;;;11.08;72.67;98864.88;4198369;28;20627;-90
2023/02/17 03:19:52;;;;;;;6.37;3.80;;;;;;;11.09;72.60;98848.25;4204525;28;20659;-91
2023/02/17 03:21:59;;;;;;;6.47;3.90;;;;;;;11.07;71.28;98847.53;4204190;28;20628;-91
2023/02/17 03:24:02;;;;;;;6.23;4.47;;;;;;;11.09;70.72;98850.03;4185905;28;20685;-91
2023/02/17 03:26:05;;;;;;;5.83;4.27;;;;;;;11.12;70.58;98855.91;4206125;28;21034;-91
2023/02/17 03:28:09;;;;;;;4.80;3.87;;;;;;;11.15;72.52;98865.34;4180178;28;20987;-90
2023/02/17 03:30:13;;;;;;;5.53;3.80;;;;;;;11.11;71.76;98856.88;4184459;28;20743;-90
2023/02/17 03:32:16;;;;;;;4.90;4.00;;;;;;;11.13;71.94;98855.00;4193313;28;20706;-91
2023/02/17 03:34:19;;;;;;;6.43;4.10;;;;;;;11.12;70.93;98850.69;4208425;28;20668;-92
2023/02/17 03:36:22;;;;;;;6.00;4.50;;;;;;;11.13;71.88;98855.00;4200874;28;20662;-89
2023/02/17 03:38:27;;;;;;;5.53;4.10;;;;;;;11.15;70.87;98853.13;4200262;28;21257;-91
2023/02/17 03:40:30;;;;;;;7.87;4.10;;;;;;;11.14;70.75;98856.69;4198063;28;20623;-91
2023/02/17 03:42:33;;;;;;;4.30;3.90;;;;;;;11.14;70.75;98850.59;4186540;28;20663;-91
2023/02/17 03:44:36;;;;;;;7.03;4.77;;;;;;;11.14;71.34;98858.44;4204129;28;20981;-91
2023/02/17 03:46:40;;;;;;;5.83;4.10;;;;;;;11.12;72.72;98860.31;4203355;28;20619;-90
2023/02/17 03:48:43;;;;;;;7.40;4.63;;;;;;;11.07;71.60;98852.75;4184867;28;21261;-91
2023/02/17 03:50:46;;;;;;;8.07;4.23;;;;;;;11.11;71.76;98856.88;4198960;28;20634;-91
2023/02/17 03:52:49;;;;;;;8.10;3.83;;;;;;;11.09;71.09;98861.31;4190649;28;20624;-90
2023/02/17 03:54:54;;;;;;;6.50;4.70;;;;;;;11.07;71.17;98857.97;4195083;28;20635;-91
2023/02/17 03:56:58;;;;;;;6.07;4.57;;;;;;;11.06;71.40;98858.88;4205639;28;21553;-90
2023/02/17 03:59:01;;;;;;;6.00;4.50;;;;;;;11.03;72.20;98855.63;4203626;28;20626;-90
2023/02/17 04:01:04;;;;;;;7.63;4.13;;;;;;;11.05;71.23;98858.97;4195611;28;20620;-91
2023/02/17 04:03:08;;;;;;;8.33;4.17;;;;;;;11.05;72.54;98852.00;4189567;28;20619;-91
2023/02/17 04:05:11;;;;;;;5.63;4.30;;;;;;;11.06;72.87;98852.84;4217280;28;20634;-90
2023/02/17 04:07:14;;;;;;;7.13;4.47;;;;;;;11.08;72.21;98859.66;4187407;28;20682;-91
2023/02/17 04:09:17;;;;;;;5.60;4.10;;;;;;;11.12;71.74;98860.31;4180923;28;20640;-90
2023/02/17 04:11:22;;;;;;;6.57;4.27;;;;;;;11.15;73.08;98863.56;4185384;28;20646;-91
2023/02/17 04:13:25;;;;;;;6.30;4.63;;;;;;;11.20;72.70;98872.00;4211580;28;21033;-91
2023/02/17 04:15:29;;;;;;;5.40;4.73;;;;;;;11.22;73.02;98872.75;4205257;28;20718;-91
2023/02/17 04:17:33;;;;;;;8.20;4.40;;;;;;;11.18;73.38;98866.00;4203164;28;20635;-90
2023/02/17 04:19:36;;;;;;;7.60;4.43;;;;;;;11.18;71.51;98865.19;4205761;28;20680;-90
2023/02/17 04:21:39;;;;;;;7.97;4.53;;;;;;;11.14;72.70;98874.09;4204258;28;20638;-91
2023/02/17 04:23:42;;;;;;;5.80;3.97;;;;;;;11.11;71.97;98866.44;4188783;28;20670;-90
2023/02/17 04:25:46;;;;;;;9.00;4.23;;;;;;;11.07;72.53;98873.63;4184204;28;20624;-90
2023/02/17 04:27:50;;;;;;;7.47;4.23;;;;;;;11.05;73.67;98874.63;4214921;28;20631;-90
2023/02/17 04:29:53;;;;;;;7.60;4.20;;;;;;;11.08;72.77;98875.31;4201222;28;21461;-89
2023/02/17 04:31:56;;;;;;;9.27;4.40;;;;;;;11.06;73.73;98871.09;4217189;28;20676;-91
2023/02/17 04:34:00;;;;;;;5.50;3.93;;;;;;;11.04;72.98;98870.38;4181933;28;20823;-91
2023/02/17 04:36:03;;;;;;;6.07;4.20;;;;;;;11.00;72.57;98871.47;4195252;28;20656;-91
2023/02/17 04:38:07;;;;;;;7.70;4.20;;;;;;;11.01;72.24;98862.72;4198028;28;21247;-91
2023/02/17 04:40:12;;;;;;;4.33;3.80;;;;;;;11.00;72.69;98863.63;4197733;28;20664;-91
2023/02/17 04:42:15;;;;;;;8.50;4.20;;;;;;;11.01;72.25;98862.72;4213867;28;20630;-91
2023/02/17 04:44:19;;;;;;;5.33;4.30;;;;;;;11.01;73.21;98868.75;4196374;28;20685;-91
2023/02/17 04:46:23;;;;;;;8.10;4.50;;;;;;;11.01;73.03;98867.94;4184166;28;20733;-91
2023/02/17 04:48:26;;;;;;;8.50;4.23;;;;;;;11.03;74.29;98868.66;4188492;28;20747;-90
2023/02/17 04:50:29;;;;;;;8.97;4.63;;;;;;;11.01;72.76;98862.72;4183687;28;20628;-91
2023/02/17 04:52:33;;;;;;;9.47;4.80;;;;;;;10.99;73.55;98859.31;4192941;28;20634;-91
2023/02/17 04:54:36;;;;;;;8.57;4.50;;;;;;;11.00;73.17;98863.63;4185108;28;21278;-91
2023/02/17 04:56:39;;;;;;;13.90;4.43;;;;;;;11.03;74.30;98853.84;4213807;28;20656;-90
2023/02/17 04:58:42;;;;;;;5.70;4.07;;;;;;;11.05;73.55;98859.84;4201690;28;20630;-90
2023/02/17 05:00:49;;;;;;;5.07;4.43;;;;;;;11.11;73.04;98864.69;4184109;28;20725;-92
2023/02/17 05:02:52;;;;;;;7.50;4.40;;;;;;;11.08;74.64;98864.88;4187040;28;20635;-91
2023/02/17 05:04:55;;;;;;;8.87;4.30;;;;;;;11.07;73.82;98863.19;4217004;27;20696;-91
2023/02/17 05:06:58;;;;;;;6.73;4.63;;;;;;;11.06;73.34;98866.72;4205308;28;21041;-92
2023/02/17 05:09:02;;;;;;;7.30;4.80;;;;;;;11.05;74.58;98858.97;4184151;28;20632;-92
2023/02/17 05:11:05;;;;;;;10.80;4.03;;;;;;;11.08;73.79;98866.63;4187840;28;20631;-91
2023/02/17 05:13:08;;;;;;;24.20;5.57;;;;;;;11.06;75.09;98865.88;4197676;28;20607;-91
2023/02/17 05:15:11;;;;;;;7.27;4.20;;;;;;;11.05;74.45;98865.06;4199277;28;21091;-92
2023/02/17 05:17:16;;;;;;;7.23;4.37;;;;;;;11.04;73.96;98858.13;4208930;28;21081;-91
2023/02/17 05:19:19;;;;;;;5.87;4.30;;;;;;;11.10;74.74;98859.56;4193688;28;20647;-92
2023/02/17 05:21:22;;;;;;;6.40;4.80;;;;;;;11.09;74.50;98858.72;4188260;28;20660;-92
2023/02/17 05:23:25;;;;;;;4.60;4.10;;;;;;;11.06;74.94;98858.06;4187735;28;20627;-91
2023/02/17 05:25:28;;;;;;;8.03;4.53;;;;;;;11.07;74.42;98863.19;4214830;28;20690;-92
2023/02/17 05:27:31;;;;;;;7.07;4.80;;;;;;;11.09;75.34;98871.75;4203380;28;20637;-92
2023/02/17 05:29:35;;;;;;;6.60;4.60;;;;;;;11.08;74.61;98871.84;4199443;28;20692;-90
2023/02/17 05:31:40;;;;;;;9.73;4.60;;;;;;;11.06;74.82;98871.94;4219259;28;20707;-92
2023/02/17 05:33:44;;;;;;;9.23;4.77;;;;;;;11.11;74.23;98872.53;4201597;28;20670;-92
2023/02/17 05:35:47;;;;;;;5.33;4.20;;;;;;;11.13;75.79;98877.66;4199283;28;20985;-91
2023/02/17 05:37:50;;;;;;;6.73;4.73;;;;;;;11.13;75.12;98873.28;4193762;28;20648;-93
2023/02/17 05:39:54;;;;;;;9.67;4.80;;;;;;;11.17;75.31;98877.41;4200199;28;21337;-90
2023/02/17 05:41:57;;;;;;;8.80;5.10;;;;;;;11.20;75.48;98885.06;4178199;28;20647;-91
2023/02/17 05:44:00;;;;;;;7.40;4.63;;;;;;;11.20;74.33;98882.44;4199272;28;20632;-91
2023/02/17 05:46:04;;;;;;;6.33;4.30;;;;;;;11.25;75.11;98883.00;4216753;27;20985;-91
2023/02/17 05:48:07;;;;;;;6.40;4.13;;;;;;;11.27;75.84;98885.53;4185643;28;20665;-91
2023/02/17 05:50:12;;;;;;;4.53;3.90;;;;;;;11.26;75.15;98889.91;4218604;28;20656;-91
2023/02/17 05:52:17;;;;;;;7.60;4.30;;;;;;;11.26;74.56;98889.06;4219057;28;20638;-91
2023/02/17 05:54:20;;;;;;;9.33;5.00;;;;;;;11.27;75.14;98881.13;4195138;28;20686;-92
2023/02/17 05:56:23;;;;;;;7.73;4.77;;;;;;;11.30;75.10;98892.22;4186851;28;20699;-92
2023/02/17 05:58:27;;;;;;;5.20;4.13;;;;;;;11.26;74.64;98889.91;4190160;28;21258;-88
2023/02/17 06:00:30;;;;;;;9.13;5.10;;;;;;;11.26;75.30;98900.38;4204013;28;20685;-90
2023/02/17 06:02:33;;;;;;;8.00;5.13;;;;;;;11.28;75.97;98896.72;4193798;28;21213;-90
2023/02/17 06:04:36;;;;;;;8.63;4.80;;;;;;;11.28;75.58;98898.50;4205899;28;20638;-91
2023/02/17 06:06:41;;;;;;;6.17;4.70;;;;;;;11.26;74.12;98894.28;4183627;28;20636;-90
2023/02/17 06:08:44;;;;;;;6.40;4.90;;;;;;;11.23;74.73;98890.09;4203586;28;20630;-91
2023/02/17 06:10:47;;;;;;;8.37;4.87;;;;;;;11.21;74.60;98894.53;4206122;28;20623;-90
2023/02/17 06:12:51;;;;;;;6.37;4.77;;;;;;;11.23;75.63;98905.75;4214399;28;20642;-89
2023/02/17 06:14:54;;;;;;;8.00;6.67;;;;;;;11.20;74.98;98895.50;4201970;28;20715;-91
2023/02/17 06:16:59;;;;;;;7.87;5.00;;;;;;;11.20;75.80;98903.34;4214692;28;20626;-92
2023/02/17 06:19:04;;;;;;;7.57;4.80;;;;;;;11.19;73.97;98904.25;4201597;28;20633;-90
2023/02/17 06:21:07;;;;;;;13.97;4.83;;;;;;;11.17;74.92;98906.13;4183109;28;20666;-92
2023/02/17 06:23:12;;;;;;;9.10;5.50;;;;;;;11.17;74.59;98905.25;4185115;28;20641;-89
2023/02/17 06:25:15;;;;;;;6.60;4.80;;;;;;;11.17;76.29;98905.25;4203987;28;20821;-89
2023/02/17 06:27:18;;;;;;;8.40;4.77;;;;;;;11.15;75.50;98902.72;4203506;28;21038;-88
2023/02/17 06:29:21;;;;;;;5.20;4.23;;;;;;;11.14;76.72;98906.28;4202816;28;20713;-91
2023/02/17 06:31:25;;;;;;;5.60;4.67;;;;;;;11.15;77.12;98907.94;4201758;28;20637;-89
2023/02/17 06:33:28;;;;;;;12.30;5.30;;;;;;;11.16;77.21;98909.66;4186736;28;20638;-90
2023/02/17 06:35:31;;;;;;;8.97;5.40;;;;;;;11.13;77.92;98904.59;4216475;28;20649;-90
2023/02/17 06:37:34;;;;;;;5.93;4.77;;;;;;;11.10;77.39;98906.56;4189067;28;20657;-89
2023/02/17 06:39:39;;;;;;;7.63;4.67;;;;;;;11.08;77.73;98904.03;4209537;28;20627;-90
2023/02/17 06:41:42;;;;;;;8.33;4.90;;;;;;;11.07;77.19;98909.34;4211532;28;20630;-89
2023/02/17 06:43:45;;;;;;;8.00;5.20;;;;;;;11.07;77.47;98915.38;4204861;28;20694;-90
2023/02/17 06:45:48;;;;;;;7.07;4.60;;;;;;;11.10;78.66;98909.16;4211482;28;20631;-89
2023/02/17 06:47:51;;;;;;;6.77;4.27;;;;;;;11.12;77.79;98910.75;4191405;28;20647;-90
2023/02/17 06:49:54;;;;;;;9.40;5.00;;;;;;;11.11;77.65;98916.91;4202006;28;20673;-89
2023/02/17 06:51:57;;;;;;;6.33;4.47;;;;;;;11.11;79.25;98910.81;4208335;28;20675;-90
2023/02/17 06:54:00;;;;;;;9.93;5.40;;;;;;;11.12;79.16;98907.28;4201094;28;20620;-90
2023/02/17 06:56:06;;;;;;;8.30;4.47;;;;;;;11.11;79.72;98914.31;4206096;28;20666;-90
2023/02/17 06:58:09;;;;;;;7.60;5.50;;;;;;;11.10;78.99;98911.78;4215834;28;20654;-90
2023/02/17 07:00:13;;;;;;;6.47;4.93;;;;;;;11.13;79.28;98912.44;4196020;28;20645;-90
2023/02/17 07:02:16;;;;;;;10.03;5.47;;;;;;;11.14;78.52;98908.91;4203552;28;20992;-90
2023/02/17 07:04:21;;;;;;;10.13;7.77;;;;;;;11.15;79.96;98913.19;4207290;28;20738;-90
2023/02/17 07:06:25;;;;;;;13.00;7.70;;;;;;;11.15;80.27;98913.19;4187878;28;20627;-89
2023/02/17 07:08:28;;;;;;;9.10;7.10;;;;;;;11.17;79.10;98913.09;4188137;28;20673;-89
2023/02/17 07:10:32;;;;;;;12.90;6.83;;;;;;;11.23;80.50;98913.59;4203172;28;20728;-90
2023/02/17 07:12:36;;;;;;;7.73;6.00;;;;;;;11.28;78.60;98916.78;4212640;28;20647;-89
2023/02/17 07:14:39;;;;;;;8.30;6.10;;;;;;;11.31;79.22;98914.00;4201913;28;20663;-90
2023/02/17 07:16:42;;;;;;;8.17;5.53;;;;;;;11.35;79.62;98918.06;4204938;28;20691;-90
2023/02/17 07:18:46;;;;;;;7.47;5.70;;;;;;;11.37;79.95;98926.69;4190721;28;20754;-89
2023/02/17 07:20:49;;;;;;;8.43;5.53;;;;;;;11.40;80.93;98921.28;4198339;28;21110;-90
2023/02/17 07:22:52;;;;;;;5.73;4.90;;;;;;;11.42;81.38;98924.63;4195772;28;20639;-90
2023/02/17 07:24:55;;;;;;;7.03;5.20;;;;;;;11.38;80.88;98928.34;4201315;28;20634;-90
2023/02/17 07:26:59;;;;;;;8.10;5.33;;;;;;;11.42;80.40;98927.25;4194124;28;21020;-90
2023/02/17 07:29:04;;;;;;;11.73;6.10;;;;;;;11.40;81.91;98929.13;4207037;28;21043;-90
2023/02/17 07:31:09;;;;;;;8.57;6.53;;;;;;;11.33;82.57;98926.00;4198456;28;20642;-90
2023/02/17 07:33:12;;;;;;;7.20;4.90;;;;;;;11.32;82.35;98926.94;4209443;28;20634;-88
2023/02/17 07:35:15;;;;;;;7.00;4.70;;;;;;;11.31;82.69;98925.25;4178796;28;21219;-88
2023/02/17 07:37:20;;;;;;;7.67;4.57;;;;;;;11.31;82.38;98929.66;4214860;28;20681;-88
2023/02/17 07:39:23;;;;;;;8.40;5.03;;;;;;;11.34;82.14;98932.09;4187250;28;20659;-89
2023/02/17 07:41:29;;;;;;;6.27;4.30;;;;;;;11.38;83.25;98925.75;4208656;28;21325;-88
2023/02/17 07:43:32;;;;;;;6.67;4.53;;;;;;;11.39;81.29;98932.66;4197725;28;20642;-89
2023/02/17 07:45:37;;;;;;;6.90;4.60;;;;;;;11.40;82.07;98939.56;4189144;28;21037;-89
2023/02/17 07:47:40;;;;;;;4.80;4.00;;;;;;;11.43;81.20;98944.63;4189734;28;20682;-90
2023/02/17 07:49:44;;;;;;;5.83;4.47;;;;;;;11.43;82.95;98942.84;4202883;28;21233;-89
2023/02/17 07:51:47;;;;;;;6.47;5.03;;;;;;;11.46;81.41;98950.50;4199516;28;20632;-90
2023/02/17 07:53:51;;;;;;;8.50;4.40;;;;;;;11.48;82.20;98956.50;4185502;28;20687;-91
2023/02/17 07:55:54;;;;;;;6.33;4.60;;;;;;;11.48;82.35;98953.06;4174648;28;20624;-91
2023/02/17 07:57:58;;;;;;;6.83;4.40;;;;;;;11.48;82.96;98953.88;4198997;28;20634;-92
2023/02/17 08:00:02;;;;;;;6.97;4.17;;;;;;;11.48;81.82;98950.44;4198181;28;21167;-91
2023/02/17 08:02:16;;;;;;;7.40;6.37;;;;;;;11.44;81.75;98951.50;4206305;28;20625;-91
2023/02/17 08:04:19;;;;;;;5.93;4.50;;;;;;;11.39;84.06;98948.31;4180196;28;20689;-92
2023/02/17 08:06:24;;;;;;;5.10;3.83;;;;;;;11.36;81.80;98949.34;4198605;28;20626;-92
2023/02/17 08:13:20;;;;;;;4.70;4.20;;;;;;;11.39;83.91;98948.31;4192567;28;21190;-90
2023/02/17 08:15:23;;;;;;;6.63;4.37;;;;;;;11.29;84.54;98941.97;4178796;28;20620;-91
2023/02/17 08:17:28;;;;;;;5.73;3.90;;;;;;;11.24;84.90;98946.59;4216867;28;20626;-94
2023/02/17 08:19:31;;;;;;;11.67;5.47;;;;;;;11.30;83.49;98944.47;4195336;28;20646;-92
2023/02/17 08:21:49;;;;;;;7.23;5.37;;;;;;;11.32;84.51;98946.97;4186396;28;20632;-93
2023/02/17 08:23:52;;;;;;;6.20;3.93;;;;;;;11.37;85.53;98947.59;4201938;28;20637;-93
2023/02/17 08:25:57;;;;;;;5.43;3.60;;;;;;;11.44;83.24;98949.75;4182414;28;20628;-93
2023/02/17 08:28:01;;;;;;;6.30;4.30;;;;;;;11.47;83.33;98959.19;4194678;28;20842;-93
2023/02/17 08:30:05;;;;;;;7.83;4.43;;;;;;;11.50;84.01;98964.25;4201529;28;20727;-93
2023/02/17 08:32:09;;;;;;;5.23;4.03;;;;;;;11.51;83.80;98953.69;4200873;28;21006;-92
2023/02/17 08:34:15;;;;;;;5.57;3.63;;;;;;;11.59;83.26;98963.72;4187761;28;21054;-93
2023/02/17 08:36:21;;;;;;;5.47;3.80;;;;;;;11.62;84.03;98961.78;4186436;28;20746;-94
2023/02/17 08:38:25;;;;;;;5.93;3.80;;;;;;;11.68;83.77;98963.16;4212393;27;20295;-92
2023/02/17 08:40:29;;;;;;;6.53;3.60;;;;;;;11.71;82.90;98965.59;4185251;28;20639;-93
2023/02/17 08:42:32;;;;;;;7.57;5.07;;;;;;;11.75;82.97;98960.94;4196301;28;20693;-93
2023/02/17 08:44:36;;;;;;;4.90;3.93;;;;;;;11.71;83.75;98961.22;4182552;28;20707;-95
2023/02/17 08:46:40;;;;;;;6.20;4.10;;;;;;;11.72;83.86;98965.50;4204903;28;21210;-94
2023/02/17 08:48:43;;;;;;;4.67;3.80;;;;;;;11.75;83.64;98966.16;4203841;28;20630;-94
2023/02/17 08:50:48;;;;;;;5.53;4.10;;;;;;;11.75;83.92;98961.91;4190778;28;21217;-94
2023/02/17 08:52:51;;;;;;;4.97;3.83;;;;;;;11.72;82.38;98962.06;4183853;28;20680;-94
2023/02/17 08:54:54;;;;;;;6.47;3.50;;;;;;;11.75;83.65;98969.72;4215670;28;20995;-94
2023/02/17 08:56:58;;;;;;;4.60;3.60;;;;;;;11.78;84.10;98971.22;4190422;28;20649;-92
2023/02/17 08:59:01;;;;;;;7.20;3.63;;;;;;;11.80;85.26;98964.16;4196983;28;20695;-93
2023/02/17 09:01:05;;;;;;;4.63;3.50;;;;;;;11.79;84.41;98966.84;4186490;28;20650;-93
2023/02/17 09:03:09;;;;;;;4.77;3.50;;;;;;;11.82;84.86;98966.66;4182846;28;20666;-93
2023/02/17 09:05:12;;;;;;;4.47;3.50;;;;;;;11.83;83.41;98966.56;4206772;28;20688;-93
2023/02/17 09:07:17;;;;;;;6.70;3.87;;;;;;;11.81;83.95;98972.81;4193836;28;20682;-94
2023/02/17 09:09:25;;;;;;;5.67;4.17;;;;;;;11.84;83.56;98976.06;4195658;28;20634;-93
2023/02/17 09:11:29;;;;;;;7.20;3.90;;;;;;;11.84;84.70;98973.47;4206550;28;20642;-93
2023/02/17 09:13:32;;;;;;;5.17;3.27;;;;;;;11.86;84.88;98974.25;4205055;28;20734;-93
2023/02/17 09:15:35;;;;;;;5.93;3.83;;;;;;;11.89;84.51;98971.44;4192524;28;20632;-93
2023/02/17 09:17:40;;;;;;;6.43;3.67;;;;;;;11.87;84.24;98978.50;4187202;28;20631;-92
2023/02/17 09:19:43;;;;;;;8.80;4.83;;;;;;;11.87;84.34;98980.28;4187690;28;20659;-92
2023/02/17 09:21:47;;;;;;;4.10;3.70;;;;;;;11.92;85.41;98986.94;4206964;28;20636;-94
2023/02/17 09:23:52;;;;;;;7.20;3.77;;;;;;;11.97;84.45;98987.50;4186715;28;20628;-93
2023/02/17 09:26:01;;;;;;;5.00;3.60;;;;;;;12.03;84.91;98989.75;4188186;28;20633;-94
2023/02/17 09:28:05;;;;;;;4.53;3.60;;;;;;;12.07;84.66;98996.50;4195990;28;21353;-93
2023/02/17 09:30:09;;;;;;;4.40;3.70;;;;;;;12.13;84.72;98996.09;4191566;28;21149;-94
2023/02/17 09:32:12;;;;;;;5.93;3.37;;;;;;;12.20;86.11;98994.81;4201373;28;21258;-93
2023/02/17 09:34:16;;;;;;;5.00;3.63;;;;;;;12.23;85.99;98992.84;4204556;28;21075;-93
2023/02/17 09:36:21;;;;;;;3.80;3.37;;;;;;;12.28;84.87;99000.41;4199907;28;20627;-92
2023/02/17 09:38:24;;;;;;;5.43;3.50;;;;;;;12.33;85.34;98998.38;4185988;28;20636;-93
2023/02/17 09:40:38;;;;;;;4.73;3.10;;;;;;;12.35;86.04;99001.72;4193756;28;21281;-94
2023/02/17 09:42:42;;;;;;;5.87;3.33;;;;;;;12.28;86.27;99003.88;4194100;28;20719;-94
2023/02/17 09:44:48;;;;;;;3.77;3.10;;;;;;;12.28;85.97;99010.88;4216621;28;21178;-92
2023/02/17 09:46:59;;;;;;;4.37;3.97;;;;;;;12.29;86.05;98996.88;4188407;28;20629;-93
2023/02/17 09:49:09;;;;;;;7.00;4.30;;;;;;;12.35;87.13;98996.50;4186054;28;20679;-93
2023/02/17 09:51:19;;;;;;;4.00;3.60;;;;;;;12.37;87.09;99003.31;4219306;28;20639;-93
2023/02/17 09:53:26;;;;;;;6.30;3.60;;;;;;;12.44;85.83;99001.16;4187146;28;21141;-93
2023/02/17 09:55:33;;;;;;;6.70;3.73;;;;;;;12.46;86.37;98994.06;4197172;28;20987;-93
2023/02/17 09:57:41;;;;;;;5.20;3.73;;;;;;;12.44;86.02;98988.09;4209531;27;20631;-93
2023/02/17 09:59:46;;;;;;;4.80;3.20;;;;;;;12.46;85.54;98994.06;4188621;28;20644;-93
2023/02/17 10:01:50;;;;;;;5.17;3.23;;;;;;;12.46;85.51;99004.53;4206238;28;20674;-93